sensor_id;sensor_type;location;lat;lon;timestamp;pressure;altitude;pressure_sealevel;temperature;humidity
11099;BME280;12223;42.650;23.364;2023-04-03T00:01:48;94101.88;;;6.28;100.00
11099;BME280;12223;42.650;23.364;2023-04-03T00:04:15;94125.59;;;6.46;100.00
11099;BME280;12223;42.650;23.364;2023-04-03T00:06:42;94121.16;;;6.46;100.00
11099;BME280;12223;42.650;23.364;2023-04-03T00:09:09;94081.34;;;6.25;100.00
11099;BME280;12223;42.650;23.364;2023-04-03T00:11:38;94117.69;;;6.53;100.00
11099;BME280;12223;42.650;23.364;2023-04-03T00:14:05;94116.84;;;6.59;100.00
11099;BME280;12223;42.650;23.364;2023-04-03T00:16:31;94115.19;;;6.64;100.00
11099;BME280;12223;42.650;23.364;2023-04-03T00:18:58;94105.91;;;6.68;100.00
11099;BME280;12223;42.650;23.364;2023-04-03T00:21:25;94108.75;;;6.67;100.00
11099;BME280;12223;42.650;23.364;2023-04-03T00:23:52;94073.19;;;6.39;100.00
11099;BME280;12223;42.650;23.364;2023-04-03T00:26:19;94102.56;;;6.55;100.00
11099;BME280;12223;42.650;23.364;2023-04-03T00:28:51;94103.69;;;6.27;100.00
11099;BME280;12223;42.650;23.364;2023-04-03T00:31:18;94104.00;;;6.13;100.00
11099;BME280;12223;42.650;23.364;2023-04-03T00:33:47;94106.88;;;5.98;100.00
11099;BME280;12223;42.650;23.364;2023-04-03T00:36:14;94087.75;;;5.78;100.00
11099;BME280;12223;42.650;23.364;2023-04-03T00:38:43;94099.47;;;5.75;100.00
11099;BME280;12223;42.650;23.364;2023-04-03T00:41:10;94099.03;;;5.72;100.00
11099;BME280;12223;42.650;23.364;2023-04-03T00:43:37;94096.25;;;5.66;100.00
11099;BME280;12223;42.650;23.364;2023-04-03T00:46:05;94103.06;;;5.81;100.00
11099;BME280;12223;42.650;23.364;2023-04-03T00:48:35;94096.59;;;5.77;100.00
11099;BME280;12223;42.650;23.364;2023-04-03T00:51:03;94081.91;;;5.76;100.00
11099;BME280;12223;42.650;23.364;2023-04-03T00:53:35;94094.78;;;5.90;100.00
11099;BME280;12223;42.650;23.364;2023-04-03T00:56:06;94089.16;;;5.80;100.00
11099;BME280;12223;42.650;23.364;2023-04-03T00:58:38;94106.88;;;5.91;100.00
11099;BME280;12223;42.650;23.364;2023-04-03T01:01:13;94109.88;;;5.95;100.00
11099;BME280;12223;42.650;23.364;2023-04-03T01:03:42;94104.88;;;5.93;100.00
11099;BME280;12223;42.650;23.364;2023-04-03T01:06:09;94103.84;;;5.94;100.00
11099;BME280;12223;42.650;23.364;2023-04-03T01:09:12;94110.69;;;5.95;100.00
11099;BME280;12223;42.650;23.364;2023-04-03T01:11:41;94111.94;;;5.93;100.00
11099;BME280;12223;42.650;23.364;2023-04-03T01:14:08;94112.53;;;5.88;100.00
11099;BME280;12223;42.650;23.364;2023-04-03T01:16:37;94113.13;;;5.84;100.00
11099;BME280;12223;42.650;23.364;2023-04-03T01:19:06;94105.47;;;5.76;100.00
11099;BME280;12223;42.650;23.364;2023-04-03T01:21:53;94101.03;;;5.76;100.00
11099;BME280;12223;42.650;23.364;2023-04-03T01:24:32;94103.66;;;5.76;100.00
11099;BME280;12223;42.650;23.364;2023-04-03T01:27:03;94097.84;;;5.74;100.00
11099;BME280;12223;42.650;23.364;2023-04-03T01:29:30;94106.50;;;5.75;100.00
11099;BME280;12223;42.650;23.364;2023-04-03T01:32:00;94095.41;;;5.73;100.00
11099;BME280;12223;42.650;23.364;2023-04-03T01:34:29;94083.78;;;5.62;100.00
11099;BME280;12223;42.650;23.364;2023-04-03T01:36:57;94104.69;;;5.75;100.00
11099;BME280;12223;42.650;23.364;2023-04-03T01:39:24;94088.03;;;5.50;100.00
11099;BME280;12223;42.650;23.364;2023-04-03T01:41:53;94100.53;;;5.28;100.00
11099;BME280;12223;42.650;23.364;2023-04-03T01:44:20;94096.50;;;5.32;100.00
11099;BME280;12223;42.650;23.364;2023-04-03T01:46:47;94106.16;;;5.38;100.00
11099;BME280;12223;42.650;23.364;2023-04-03T01:49:16;94098.53;;;5.37;100.00
11099;BME280;12223;42.650;23.364;2023-04-03T01:51:44;94105.16;;;5.39;100.00
11099;BME280;12223;42.650;23.364;2023-04-03T01:54:11;94094.69;;;5.26;100.00
11099;BME280;12223;42.650;23.364;2023-04-03T01:56:46;94109.81;;;5.37;100.00
11099;BME280;12223;42.650;23.364;2023-04-03T01:59:13;94099.91;;;5.33;100.00
11099;BME280;12223;42.650;23.364;2023-04-03T02:01:42;94089.44;;;5.33;100.00
11099;BME280;12223;42.650;23.364;2023-04-03T02:04:18;94056.47;;;5.12;100.00
11099;BME280;12223;42.650;23.364;2023-04-03T02:06:46;94071.56;;;5.10;100.00
11099;BME280;12223;42.650;23.364;2023-04-03T02:09:13;94089.88;;;5.23;100.00
11099;BME280;12223;42.650;23.364;2023-04-03T02:11:40;94092.47;;;5.43;100.00
11099;BME280;12223;42.650;23.364;2023-04-03T02:14:07;94095.91;;;5.37;100.00
11099;BME280;12223;42.650;23.364;2023-04-03T02:16:34;94103.13;;;5.48;100.00
11099;BME280;12223;42.650;23.364;2023-04-03T02:19:01;94108.75;;;5.51;100.00
11099;BME280;12223;42.650;23.364;2023-04-03T02:21:29;94106.75;;;5.47;100.00
11099;BME280;12223;42.650;23.364;2023-04-03T02:23:56;94095.72;;;5.18;100.00
11099;BME280;12223;42.650;23.364;2023-04-03T02:26:23;94098.53;;;5.37;100.00
11099;BME280;12223;42.650;23.364;2023-04-03T02:28:51;94101.56;;;5.14;100.00
11099;BME280;12223;42.650;23.364;2023-04-03T02:31:18;94091.06;;;4.81;100.00
11099;BME280;12223;42.650;23.364;2023-04-03T02:33:46;94066.13;;;4.59;100.00
11099;BME280;12223;42.650;23.364;2023-04-03T02:36:13;94081.84;;;4.72;100.00
11099;BME280;12223;42.650;23.364;2023-04-03T02:38:43;94068.94;;;4.64;100.00
11099;BME280;12223;42.650;23.364;2023-04-03T02:41:11;94078.00;;;4.74;100.00
11099;BME280;12223;42.650;23.364;2023-04-03T02:43:39;94072.78;;;4.55;100.00
11099;BME280;12223;42.650;23.364;2023-04-03T02:46:07;94063.91;;;4.56;100.00
11099;BME280;12223;42.650;23.364;2023-04-03T02:48:34;94066.75;;;4.61;100.00
11099;BME280;12223;42.650;23.364;2023-04-03T02:51:02;94034.56;;;4.54;100.00
11099;BME280;12223;42.650;23.364;2023-04-03T02:53:29;94057.28;;;4.60;100.00
11099;BME280;12223;42.650;23.364;2023-04-03T02:55:58;94052.84;;;4.40;100.00
11099;BME280;12223;42.650;23.364;2023-04-03T02:58:26;94028.31;;;4.35;100.00
11099;BME280;12223;42.650;23.364;2023-04-03T03:00:55;94031.50;;;4.43;100.00
11099;BME280;12223;42.650;23.364;2023-04-03T03:03:22;94033.31;;;4.36;100.00
11099;BME280;12223;42.650;23.364;2023-04-03T03:05:49;94041.41;;;4.55;100.00
11099;BME280;12223;42.650;23.364;2023-04-03T03:08:17;94041.78;;;4.58;100.00
11099;BME280;12223;42.650;23.364;2023-04-03T03:10:45;94040.38;;;4.56;100.00
11099;BME280;12223;42.650;23.364;2023-04-03T03:13:39;94028.72;;;4.52;100.00
11099;BME280;12223;42.650;23.364;2023-04-03T03:16:07;94030.53;;;4.58;100.00
11099;BME280;12223;42.650;23.364;2023-04-03T03:18:35;94025.91;;;4.60;100.00
11099;BME280;12223;42.650;23.364;2023-04-03T03:21:04;94018.25;;;4.58;100.00
11099;BME280;12223;42.650;23.364;2023-04-03T03:23:32;94043.22;;;4.74;100.00
11099;BME280;12223;42.650;23.364;2023-04-03T03:26:01;94039.19;;;4.78;100.00
11099;BME280;12223;42.650;23.364;2023-04-03T03:28:29;94040.19;;;4.83;100.00
11099;BME280;12223;42.650;23.364;2023-04-03T03:30:58;94038.56;;;4.89;100.00
11099;BME280;12223;42.650;23.364;2023-04-03T03:33:25;94038.75;;;4.94;100.00
11099;BME280;12223;42.650;23.364;2023-04-03T03:35:53;94043.19;;;4.94;100.00
11099;BME280;12223;42.650;23.364;2023-04-03T03:38:20;94049.03;;;4.69;100.00
11099;BME280;12223;42.650;23.364;2023-04-03T03:40:47;94060.09;;;4.78;100.00
11099;BME280;12223;42.650;23.364;2023-04-03T03:43:15;94052.66;;;4.75;100.00
11099;BME280;12223;42.650;23.364;2023-04-03T03:45:45;93973.19;;;4.50;100.00
11099;BME280;12223;42.650;23.364;2023-04-03T03:48:19;94056.88;;;5.02;100.00
11099;BME280;12223;42.650;23.364;2023-04-03T03:50:49;94050.03;;;5.01;100.00
11099;BME280;12223;42.650;23.364;2023-04-03T03:53:19;94056.50;;;4.99;100.00
11099;BME280;12223;42.650;23.364;2023-04-03T03:55:47;94067.16;;;4.91;100.00
11099;BME280;12223;42.650;23.364;2023-04-03T03:58:14;94078.00;;;4.88;100.00
11099;BME280;12223;42.650;23.364;2023-04-03T04:00:41;94066.94;;;4.66;100.00
11099;BME280;12223;42.650;23.364;2023-04-03T04:03:08;94063.91;;;4.56;100.00
11099;BME280;12223;42.650;23.364;2023-04-03T04:05:37;94059.91;;;4.53;100.00
11099;BME280;12223;42.650;23.364;2023-04-03T04:08:04;94055.28;;;4.55;100.00
11099;BME280;12223;42.650;23.364;2023-04-03T04:10:31;94042.78;;;4.57;100.00
11099;BME280;12223;42.650;23.364;2023-04-03T04:13:00;94066.75;;;4.61;100.00
11099;BME280;12223;42.650;23.364;2023-04-03T04:15:27;94051.88;;;4.68;100.00
11099;BME280;12223;42.650;23.364;2023-04-03T04:17:55;94056.47;;;4.72;100.00
11099;BME280;12223;42.650;23.364;2023-04-03T04:20:43;94069.38;;;4.80;100.00
11099;BME280;12223;42.650;23.364;2023-04-03T04:23:15;94046.41;;;4.56;100.00
11099;BME280;12223;42.650;23.364;2023-04-03T04:25:47;94066.34;;;4.70;100.00
11099;BME280;12223;42.650;23.364;2023-04-03T04:28:14;94066.53;;;4.75;100.00
11099;BME280;12223;42.650;23.364;2023-04-03T04:30:43;94061.31;;;4.82;100.00
11099;BME280;12223;42.650;23.364;2023-04-03T04:33:14;94069.56;;;4.85;100.00
11099;BME280;12223;42.650;23.364;2023-04-03T04:35:43;94059.31;;;4.84;100.00
11099;BME280;12223;42.650;23.364;2023-04-03T04:38:10;94071.38;;;4.92;100.00
11099;BME280;12223;42.650;23.364;2023-04-03T04:40:39;94085.28;;;4.99;100.00
11099;BME280;12223;42.650;23.364;2023-04-03T04:43:06;94075.56;;;5.12;100.00
11099;BME280;12223;42.650;23.364;2023-04-03T04:45:36;94085.03;;;5.26;100.00
11099;BME280;12223;42.650;23.364;2023-04-03T04:48:03;94091.69;;;5.36;100.00
11099;BME280;12223;42.650;23.364;2023-04-03T04:50:30;94077.59;;;5.23;100.00
11099;BME280;12223;42.650;23.364;2023-04-03T04:52:59;94101.56;;;5.14;100.00
11099;BME280;12223;42.650;23.364;2023-04-03T04:55:26;94101.72;;;5.39;100.00
11099;BME280;12223;42.650;23.364;2023-04-03T04:57:53;94102.09;;;5.62;100.00
11099;BME280;12223;42.650;23.364;2023-04-03T05:00:21;94114.34;;;5.81;100.00
11099;BME280;12223;42.650;23.364;2023-04-03T05:02:52;94124.03;;;5.74;100.00
11099;BME280;12223;42.650;23.364;2023-04-03T05:05:21;94129.72;;;5.51;100.00
11099;BME280;12223;42.650;23.364;2023-04-03T05:07:51;94132.16;;;5.26;100.00
11099;BME280;12223;42.650;23.364;2023-04-03T05:10:22;94126.53;;;5.36;100.00
11099;BME280;12223;42.650;23.364;2023-04-03T05:12:49;94132.50;;;5.63;100.00
11099;BME280;12223;42.650;23.364;2023-04-03T05:15:16;94136.53;;;5.65;100.00
11099;BME280;12223;42.650;23.364;2023-04-03T05:17:43;94137.34;;;5.59;100.00
11099;BME280;12223;42.650;23.364;2023-04-03T05:20:10;94138.16;;;5.73;100.00
11099;BME280;12223;42.650;23.364;2023-04-03T05:22:37;94138.69;;;6.01;100.00
11099;BME280;12223;42.650;23.364;2023-04-03T05:25:05;94153.97;;;6.18;100.00
11099;BME280;12223;42.650;23.364;2023-04-03T05:27:34;94073.81;;;5.90;100.00
11099;BME280;12223;42.650;23.364;2023-04-03T05:30:01;94140.06;;;6.62;100.00
11099;BME280;12223;42.650;23.364;2023-04-03T05:32:28;94111.84;;;6.57;100.00
11099;BME280;12223;42.650;23.364;2023-04-03T05:34:54;94147.53;;;7.21;100.00
11099;BME280;12223;42.650;23.364;2023-04-03T05:37:21;94140.25;;;7.48;100.00
11099;BME280;12223;42.650;23.364;2023-04-03T05:39:48;94137.22;;;7.69;100.00
11099;BME280;12223;42.650;23.364;2023-04-03T05:42:17;94132.81;;;7.88;100.00
11099;BME280;12223;42.650;23.364;2023-04-03T05:44:45;94049.63;;;7.57;100.00
11099;BME280;12223;42.650;23.364;2023-04-03T05:47:12;94124.38;;;8.16;100.00
11099;BME280;12223;42.650;23.364;2023-04-03T05:49:39;94136.25;;;8.43;100.00
11099;BME280;12223;42.650;23.364;2023-04-03T05:52:11;94126.53;;;8.43;100.00
11099;BME280;12223;42.650;23.364;2023-04-03T05:54:44;94137.75;;;8.69;100.00
11099;BME280;12223;42.650;23.364;2023-04-03T05:57:13;94134.22;;;8.75;100.00
11099;BME280;12223;42.650;23.364;2023-04-03T05:59:41;94088.06;;;8.42;100.00
11099;BME280;12223;42.650;23.364;2023-04-03T06:02:11;94137.69;;;8.87;100.00
11099;BME280;12223;42.650;23.364;2023-04-03T06:04:38;94135.44;;;8.91;100.00
11099;BME280;12223;42.650;23.364;2023-04-03T06:07:05;94105.72;;;8.72;100.00
11099;BME280;12223;42.650;23.364;2023-04-03T06:09:33;94129.59;;;9.00;100.00
11099;BME280;12223;42.650;23.364;2023-04-03T06:12:01;94127.88;;;8.94;100.00
11099;BME280;12223;42.650;23.364;2023-04-03T06:14:28;94116.75;;;8.92;100.00
11099;BME280;12223;42.650;23.364;2023-04-03T06:16:55;94119.81;;;8.77;100.00
11099;BME280;12223;42.650;23.364;2023-04-03T06:19:23;94094.88;;;8.50;100.00
11099;BME280;12223;42.650;23.364;2023-04-03T06:21:51;94104.38;;;8.51;100.00
11099;BME280;12223;42.650;23.364;2023-04-03T06:24:18;94082.25;;;8.40;100.00
11099;BME280;12223;42.650;23.364;2023-04-03T06:26:45;94117.41;;;8.76;100.00
11099;BME280;12223;42.650;23.364;2023-04-03T06:29:14;94130.81;;;8.86;100.00
11099;BME280;12223;42.650;23.364;2023-04-03T06:31:45;94122.09;;;9.15;100.00
11099;BME280;12223;42.650;23.364;2023-04-03T06:34:13;94142.88;;;9.58;100.00
11099;BME280;12223;42.650;23.364;2023-04-03T06:36:43;94138.41;;;9.82;100.00
11099;BME280;12223;42.650;23.364;2023-04-03T06:39:13;94142.56;;;9.78;100.00
11099;BME280;12223;42.650;23.364;2023-04-03T06:41:41;94084.53;;;9.32;100.00
11099;BME280;12223;42.650;23.364;2023-04-03T06:44:08;94143.34;;;9.67;99.76
11099;BME280;12223;42.650;23.364;2023-04-03T06:46:37;94130.28;;;9.72;100.00
11099;BME280;12223;42.650;23.364;2023-04-03T06:49:05;94130.63;;;9.76;100.00
11099;BME280;12223;42.650;23.364;2023-04-03T06:51:34;94128.56;;;9.78;100.00
11099;BME280;12223;42.650;23.364;2023-04-03T06:54:04;94143.13;;;9.92;99.10
11099;BME280;12223;42.650;23.364;2023-04-03T06:56:32;94143.31;;;10.14;97.09
11099;BME280;12223;42.650;23.364;2023-04-03T06:58:59;94137.03;;;10.26;95.58
11099;BME280;12223;42.650;23.364;2023-04-03T07:01:27;94147.88;;;10.53;93.28
11099;BME280;12223;42.650;23.364;2023-04-03T07:03:55;94117.31;;;10.57;91.05
11099;BME280;12223;42.650;23.364;2023-04-03T07:06:23;94085.44;;;10.47;89.13
11099;BME280;12223;42.650;23.364;2023-04-03T07:09:03;94139.34;;;10.91;89.22
11099;BME280;12223;42.650;23.364;2023-04-03T07:11:29;94125.72;;;11.11;90.53
11099;BME280;12223;42.650;23.364;2023-04-03T07:13:56;94124.91;;;11.27;86.94
11099;BME280;12223;42.650;23.364;2023-04-03T07:16:26;94128.84;;;11.41;83.93
11099;BME280;12223;42.650;23.364;2023-04-03T07:18:53;94115.41;;;11.59;82.18
11099;BME280;12223;42.650;23.364;2023-04-03T07:21:20;94112.66;;;11.71;81.20
11099;BME280;12223;42.650;23.364;2023-04-03T07:23:47;94114.81;;;11.91;79.93
11099;BME280;12223;42.650;23.364;2023-04-03T07:26:15;94119.31;;;12.07;78.51
11099;BME280;12223;42.650;23.364;2023-04-03T07:28:42;94106.81;;;12.24;76.26
11099;BME280;12223;42.650;23.364;2023-04-03T07:31:11;94110.81;;;12.27;75.26
11099;BME280;12223;42.650;23.364;2023-04-03T07:33:39;94107.78;;;12.40;72.69
11099;BME280;12223;42.650;23.364;2023-04-03T07:36:15;94105.91;;;12.57;71.31
11099;BME280;12223;42.650;23.364;2023-04-03T07:38:43;94125.09;;;11.87;73.29
11099;BME280;12223;42.650;23.364;2023-04-03T07:41:12;94114.25;;;11.22;78.78
11099;BME280;12223;42.650;23.364;2023-04-03T07:43:42;94098.19;;;10.38;89.50
11099;BME280;12223;42.650;23.364;2023-04-03T07:46:09;94106.97;;;10.67;92.83
11099;BME280;12223;42.650;23.364;2023-04-03T07:48:36;94104.97;;;10.74;89.91
11099;BME280;12223;42.650;23.364;2023-04-03T07:51:04;94096.66;;;10.82;88.31
11099;BME280;12223;42.650;23.364;2023-04-03T07:53:31;94105.66;;;10.98;87.25
11099;BME280;12223;42.650;23.364;2023-04-03T07:55:59;94047.56;;;10.70;87.24
11099;BME280;12223;42.650;23.364;2023-04-03T07:58:26;94094.69;;;10.61;88.35
11099;BME280;12223;42.650;23.364;2023-04-03T08:00:57;94109.16;;;10.59;92.64
11099;BME280;12223;42.650;23.364;2023-04-03T08:03:24;94098.31;;;10.72;90.77
11099;BME280;12223;42.650;23.364;2023-04-03T08:05:52;94099.25;;;10.66;91.27
11099;BME280;12223;42.650;23.364;2023-04-03T08:08:21;94096.69;;;10.54;92.56
11099;BME280;12223;42.650;23.364;2023-04-03T08:10:49;94097.75;;;10.70;92.32
11099;BME280;12223;42.650;23.364;2023-04-03T08:13:16;94092.53;;;10.86;89.79
11099;BME280;12223;42.650;23.364;2023-04-03T08:15:43;94095.63;;;11.00;88.96
11099;BME280;12223;42.650;23.364;2023-04-03T08:18:12;94088.78;;;11.16;88.09
11099;BME280;12223;42.650;23.364;2023-04-03T08:20:39;94082.19;;;11.02;87.80
11099;BME280;12223;42.650;23.364;2023-04-03T08:23:06;94098.25;;;10.83;88.83
11099;BME280;12223;42.650;23.364;2023-04-03T08:25:33;94088.34;;;10.91;88.80
11099;BME280;12223;42.650;23.364;2023-04-03T08:28:01;94076.75;;;10.92;88.01
11099;BME280;12223;42.650;23.364;2023-04-03T08:30:29;94085.00;;;10.95;87.67
11099;BME280;12223;42.650;23.364;2023-04-03T08:32:56;94073.47;;;11.01;86.89
11099;BME280;12223;42.650;23.364;2023-04-03T08:35:26;94083.56;;;11.04;88.29
11099;BME280;12223;42.650;23.364;2023-04-03T08:37:53;94043.38;;;11.02;86.32
11099;BME280;12223;42.650;23.364;2023-04-03T08:40:20;94071.88;;;11.34;85.43
11099;BME280;12223;42.650;23.364;2023-04-03T08:42:53;94059.56;;;11.39;84.50
11099;BME280;12223;42.650;23.364;2023-04-03T08:45:30;94068.91;;;11.80;82.59
11099;BME280;12223;42.650;23.364;2023-04-03T08:48:03;94052.25;;;12.01;78.70
11099;BME280;12223;42.650;23.364;2023-04-03T08:50:38;94029.59;;;11.50;80.48
11099;BME280;12223;42.650;23.364;2023-04-03T08:53:11;94067.00;;;11.76;82.17
11099;BME280;12223;42.650;23.364;2023-04-03T08:55:42;94051.84;;;12.09;79.66
11099;BME280;12223;42.650;23.364;2023-04-03T08:58:12;94046.69;;;12.46;78.14
11099;BME280;12223;42.650;23.364;2023-04-03T09:00:44;94046.34;;;12.86;73.45
11099;BME280;12223;42.650;23.364;2023-04-03T09:03:13;94050.91;;;13.23;71.65
11099;BME280;12223;42.650;23.364;2023-04-03T09:05:47;94045.59;;;13.55;69.49
11099;BME280;12223;42.650;23.364;2023-04-03T09:08:28;94030.28;;;13.67;65.62
11099;BME280;12223;42.650;23.364;2023-04-03T09:11:08;94036.06;;;14.06;63.21
11099;BME280;12223;42.650;23.364;2023-04-03T09:13:45;94037.31;;;14.40;62.23
11099;BME280;12223;42.650;23.364;2023-04-03T09:16:25;94034.19;;;14.59;58.59
11099;BME280;12223;42.650;23.364;2023-04-03T09:18:59;94032.84;;;14.56;58.72
11099;BME280;12223;42.650;23.364;2023-04-03T09:21:34;94017.22;;;14.75;58.13
11099;BME280;12223;42.650;23.364;2023-04-03T09:24:04;94010.56;;;14.93;56.15
11099;BME280;12223;42.650;23.364;2023-04-03T09:26:38;94015.63;;;14.84;57.80
11099;BME280;12223;42.650;23.364;2023-04-03T09:29:10;94016.47;;;15.10;56.55
11099;BME280;12223;42.650;23.364;2023-04-03T09:31:43;94013.50;;;14.76;55.21
11099;BME280;12223;42.650;23.364;2023-04-03T09:34:19;94018.25;;;14.54;56.33
11099;BME280;12223;42.650;23.364;2023-04-03T09:36:50;94021.72;;;14.02;57.95
11099;BME280;12223;42.650;23.364;2023-04-03T09:39:20;94016.56;;;13.80;59.25
11099;BME280;12223;42.650;23.364;2023-04-03T09:41:57;94015.03;;;13.89;59.96
11099;BME280;12223;42.650;23.364;2023-04-03T09:44:26;94010.53;;;13.90;60.01
11099;BME280;12223;42.650;23.364;2023-04-03T09:46:54;94010.28;;;13.96;59.70
11099;BME280;12223;42.650;23.364;2023-04-03T09:49:22;93988.09;;;14.28;56.08
11099;BME280;12223;42.650;23.364;2023-04-03T09:51:50;93992.00;;;14.05;53.71
11099;BME280;12223;42.650;23.364;2023-04-03T09:54:34;93974.28;;;13.21;53.92
11099;BME280;12223;42.650;23.364;2023-04-03T09:57:12;93999.69;;;13.17;56.94
11099;BME280;12223;42.650;23.364;2023-04-03T09:59:44;93996.13;;;13.34;57.07
11099;BME280;12223;42.650;23.364;2023-04-03T10:02:23;93993.75;;;13.37;57.34
11099;BME280;12223;42.650;23.364;2023-04-03T10:04:55;93995.13;;;13.45;57.68
11099;BME280;12223;42.650;23.364;2023-04-03T10:07:32;93999.16;;;13.15;58.95
11099;BME280;12223;42.650;23.364;2023-04-03T10:10:01;93987.91;;;13.03;58.95
11099;BME280;12223;42.650;23.364;2023-04-03T10:12:29;93995.97;;;13.13;59.16
11099;BME280;12223;42.650;23.364;2023-04-03T10:14:57;93998.28;;;13.10;60.30
11099;BME280;12223;42.650;23.364;2023-04-03T10:17:33;93990.53;;;13.03;60.67
11099;BME280;12223;42.650;23.364;2023-04-03T10:20:10;93985.97;;;12.94;60.19
11099;BME280;12223;42.650;23.364;2023-04-03T10:22:56;93995.97;;;13.13;60.17
11099;BME280;12223;42.650;23.364;2023-04-03T10:25:32;93958.50;;;13.05;59.53
11099;BME280;12223;42.650;23.364;2023-04-03T10:28:06;93975.63;;;12.92;59.82
11099;BME280;12223;42.650;23.364;2023-04-03T10:30:42;93981.22;;;12.64;60.79
11099;BME280;12223;42.650;23.364;2023-04-03T10:33:27;93976.06;;;12.84;60.85
11099;BME280;12223;42.650;23.364;2023-04-03T10:36:06;93970.16;;;13.09;60.89
11099;BME280;12223;42.650;23.364;2023-04-03T10:38:43;93970.66;;;13.33;60.27
11099;BME280;12223;42.650;23.364;2023-04-03T10:41:17;93973.59;;;13.36;59.09
11099;BME280;12223;42.650;23.364;2023-04-03T10:43:58;93946.03;;;13.42;58.78
11099;BME280;12223;42.650;23.364;2023-04-03T10:46:29;93963.78;;;13.37;58.54
11099;BME280;12223;42.650;23.364;2023-04-03T10:49:11;93957.63;;;13.26;58.33
11099;BME280;12223;42.650;23.364;2023-04-03T10:51:44;93958.63;;;13.15;58.21
11099;BME280;12223;42.650;23.364;2023-04-03T10:54:17;93961.16;;;13.10;58.72
11099;BME280;12223;42.650;23.364;2023-04-03T10:56:50;93954.72;;;12.96;59.51
11099;BME280;12223;42.650;23.364;2023-04-03T10:59:23;93957.03;;;12.87;61.83
11099;BME280;12223;42.650;23.364;2023-04-03T11:01:55;93959.13;;;12.85;64.19
11099;BME280;12223;42.650;23.364;2023-04-03T11:04:25;93965.75;;;12.82;65.87
11099;BME280;12223;42.650;23.364;2023-04-03T11:06:57;93970.34;;;12.65;71.50
11099;BME280;12223;42.650;23.364;2023-04-03T11:09:31;93969.78;;;12.58;73.33
11099;BME280;12223;42.650;23.364;2023-04-03T11:12:02;93945.03;;;12.21;75.80
11099;BME280;12223;42.650;23.364;2023-04-03T11:14:32;93957.78;;;12.24;81.70
11099;BME280;12223;42.650;23.364;2023-04-03T11:17:19;93977.97;;;12.08;84.04
11099;BME280;12223;42.650;23.364;2023-04-03T11:19:51;93969.72;;;11.83;89.99
11099;BME280;12223;42.650;23.364;2023-04-03T11:22:24;93971.31;;;11.62;97.67
11099;BME280;12223;42.650;23.364;2023-04-03T11:24:59;93976.84;;;11.22;100.00
11099;BME280;12223;42.650;23.364;2023-04-03T11:27:37;93967.41;;;10.93;100.00
11099;BME280;12223;42.650;23.364;2023-04-03T11:30:07;93963.25;;;10.97;100.00
11099;BME280;12223;42.650;23.364;2023-04-03T11:33:00;93955.97;;;10.87;100.00
11099;BME280;12223;42.650;23.364;2023-04-03T11:35:30;93958.59;;;11.04;100.00
11099;BME280;12223;42.650;23.364;2023-04-03T11:37:59;93957.09;;;10.91;100.00
11099;BME280;12223;42.650;23.364;2023-04-03T11:40:32;93944.50;;;10.81;100.00
11099;BME280;12223;42.650;23.364;2023-04-03T11:43:06;93958.28;;;10.83;100.00
11099;BME280;12223;42.650;23.364;2023-04-03T11:45:38;93946.91;;;10.83;100.00
11099;BME280;12223;42.650;23.364;2023-04-03T11:48:49;93946.91;;;10.83;100.00
11099;BME280;12223;42.650;23.364;2023-04-03T11:51:43;93947.41;;;10.80;100.00
11099;BME280;12223;42.650;23.364;2023-04-03T11:57:46;93921.06;;;10.35;100.00
11099;BME280;12223;42.650;23.364;2023-04-03T12:06:49;93904.66;;;10.04;100.00
11099;BME280;12223;42.650;23.364;2023-04-03T12:09:34;93899.19;;;9.94;100.00
11099;BME280;12223;42.650;23.364;2023-04-03T12:12:26;93890.41;;;10.05;100.00
11099;BME280;12223;42.650;23.364;2023-04-03T12:14:55;93879.63;;;10.07;100.00
11099;BME280;12223;42.650;23.364;2023-04-03T12:17:26;93876.50;;;9.93;100.00
11099;BME280;12223;42.650;23.364;2023-04-03T12:19:54;93857.06;;;9.99;100.00
11099;BME280;12223;42.650;23.364;2023-04-03T12:22:21;93848.84;;;9.96;100.00
11099;BME280;12223;42.650;23.364;2023-04-03T12:24:50;93853.25;;;10.07;100.00
11099;BME280;12223;42.650;23.364;2023-04-03T12:27:23;93848.78;;;10.07;100.00
11099;BME280;12223;42.650;23.364;2023-04-03T12:29:58;93841.38;;;10.04;100.00
11099;BME280;12223;42.650;23.364;2023-04-03T12:32:37;93830.13;;;9.81;100.00
11099;BME280;12223;42.650;23.364;2023-04-03T12:35:16;93795.84;;;9.81;100.00
11099;BME280;12223;42.650;23.364;2023-04-03T12:41:00;93808.44;;;9.62;100.00
11099;BME280;12223;42.650;23.364;2023-04-03T12:43:50;93784.63;;;9.57;100.00
11099;BME280;12223;42.650;23.364;2023-04-03T12:46:26;93777.22;;;9.54;100.00
11099;BME280;12223;42.650;23.364;2023-04-03T12:48:57;93755.69;;;9.45;100.00
11099;BME280;12223;42.650;23.364;2023-04-03T12:51:30;93748.38;;;9.47;100.00
11099;BME280;12223;42.650;23.364;2023-04-03T12:54:03;93752.34;;;9.50;100.00
11099;BME280;12223;42.650;23.364;2023-04-03T12:56:32;93735.41;;;9.46;100.00
11099;BME280;12223;42.650;23.364;2023-04-03T12:59:14;93730.22;;;9.34;100.00
11099;BME280;12223;42.650;23.364;2023-04-03T13:01:43;93757.72;;;9.26;100.00
11099;BME280;12223;42.650;23.364;2023-04-03T13:04:10;93762.78;;;9.28;100.00
11099;BME280;12223;42.650;23.364;2023-04-03T13:06:40;93753.03;;;9.28;100.00
11099;BME280;12223;42.650;23.364;2023-04-03T13:09:19;93742.22;;;9.13;100.00
11099;BME280;12223;42.650;23.364;2023-04-03T13:11:50;93755.16;;;9.15;100.00
11099;BME280;12223;42.650;23.364;2023-04-03T13:14:20;93732.38;;;9.09;100.00
11099;BME280;12223;42.650;23.364;2023-04-03T13:17:05;93723.19;;;9.11;100.00
11099;BME280;12223;42.650;23.364;2023-04-03T13:19:33;93710.75;;;9.07;100.00
11099;BME280;12223;42.650;23.364;2023-04-03T13:22:02;93684.66;;;8.77;100.00